createdAt,value
2022-09-15T00:01:57.068Z,56.18
2022-09-15T00:04:23.967Z,55.96
2022-09-15T00:06:50.810Z,55.75
2022-09-15T00:09:17.665Z,56.19
2022-09-15T00:11:44.492Z,55.86
2022-09-15T00:14:11.388Z,55.78
2022-09-15T00:16:38.546Z,55.87
2022-09-15T00:19:06.511Z,55.79
2022-09-15T00:21:34.469Z,55.89
2022-09-15T00:24:01.666Z,55.96
2022-09-15T00:26:29.397Z,55.72
2022-09-15T00:28:57.071Z,55.86
2022-09-15T00:31:25.284Z,55.80
2022-09-15T00:33:54.062Z,55.86
2022-09-15T00:36:21.131Z,55.88
2022-09-15T00:38:48.017Z,55.93
2022-09-15T00:41:16.168Z,56.06
2022-09-15T00:43:50.661Z,55.82
2022-09-15T00:46:18.553Z,55.61
2022-09-15T00:48:56.510Z,55.73
2022-09-15T00:51:30.565Z,55.75
2022-09-15T00:53:57.592Z,55.59
2022-09-15T00:56:24.461Z,55.73
2022-09-15T00:58:57.987Z,55.77
2022-09-15T01:01:30.879Z,55.66
2022-09-15T01:03:58.220Z,55.30
2022-09-15T01:06:39.232Z,55.64
2022-09-15T01:09:10.697Z,55.55
2022-09-15T01:11:37.615Z,55.64
2022-09-15T01:14:04.495Z,55.62
2022-09-15T01:20:06.888Z,55.72
2022-09-15T01:23:10.613Z,55.54
2022-09-15T01:26:02.786Z,55.72
2022-09-15T01:29:05.119Z,55.66
2022-09-15T01:32:02.170Z,55.84
2022-09-15T01:34:32.202Z,55.88
2022-09-15T01:37:05.147Z,55.63
2022-09-15T01:39:35.029Z,55.80
2022-09-15T01:42:10.116Z,56.09
2022-09-15T01:44:47.827Z,55.97
2022-09-15T01:47:16.049Z,56.21
2022-09-15T01:49:46.387Z,56.21
2022-09-15T01:52:16.007Z,56.06
2022-09-15T01:54:49.048Z,56.09
2022-09-15T01:57:17.410Z,56.04
2022-09-15T01:59:44.477Z,56.10
2022-09-15T02:02:14.159Z,56.21
2022-09-15T02:04:50.706Z,56.08
2022-09-15T02:07:38.137Z,56.24
2022-09-15T02:10:13.943Z,56.14
2022-09-15T02:12:50.793Z,56.34
2022-09-15T02:15:42.392Z,56.12
2022-09-15T02:18:10.407Z,56.71
2022-09-15T02:20:38.953Z,56.50
2022-09-15T02:23:10.088Z,56.59
2022-09-15T02:25:40.880Z,56.57
2022-09-15T02:28:08.584Z,56.48
2022-09-15T02:30:36.484Z,56.82
2022-09-15T02:33:06.739Z,56.53
2022-09-15T02:35:34.956Z,56.80
2022-09-15T02:38:02.064Z,56.95
2022-09-15T02:40:29.208Z,56.87
2022-09-15T02:42:58.100Z,56.37
2022-09-15T02:45:25.372Z,56.93
2022-09-15T02:47:52.237Z,57.20
2022-09-15T02:50:20.143Z,57.25
2022-09-15T02:52:47.071Z,56.64
2022-09-15T02:55:13.931Z,56.94
2022-09-15T02:57:40.787Z,57.17
2022-09-15T03:00:14.892Z,56.98
2022-09-15T03:02:46.292Z,57.08
2022-09-15T03:05:14.292Z,57.17
2022-09-15T03:07:41.120Z,57.18
2022-09-15T03:10:08.590Z,56.97
2022-09-15T03:12:43.289Z,57.08
2022-09-15T03:15:11.409Z,56.98
2022-09-15T03:17:39.417Z,57.08
2022-09-15T03:20:08.000Z,57.16
2022-09-15T03:22:35.367Z,57.06
2022-09-15T03:25:05.650Z,57.02
2022-09-15T03:27:33.311Z,56.66
2022-09-15T03:30:00.498Z,57.56
2022-09-15T03:32:27.552Z,58.32
2022-09-15T03:34:58.388Z,58.42
2022-09-15T03:37:26.001Z,58.08
2022-09-15T03:39:53.170Z,57.59
2022-09-15T03:42:20.396Z,57.12
2022-09-15T03:44:47.269Z,57.05
2022-09-15T03:47:14.354Z,56.79
2022-09-15T03:49:41.365Z,56.34
2022-09-15T03:52:08.558Z,55.98
2022-09-15T03:54:35.586Z,55.81
2022-09-15T03:57:03.435Z,55.25
2022-09-15T03:59:30.297Z,55.29
2022-09-15T04:01:57.378Z,54.83
2022-09-15T04:04:24.421Z,54.53
2022-09-15T04:06:51.261Z,53.88
2022-09-15T04:09:20.331Z,53.47
2022-09-15T04:11:47.949Z,53.16
2022-09-15T04:14:14.971Z,52.61
2022-09-15T04:16:42.048Z,52.63
2022-09-15T04:19:09.001Z,52.50
2022-09-15T04:21:36.042Z,52.05
2022-09-15T04:24:04.906Z,51.91
2022-09-15T04:26:36.079Z,51.33
2022-09-15T04:29:04.801Z,51.45
2022-09-15T04:31:32.534Z,51.53
2022-09-15T04:33:59.979Z,51.09
2022-09-15T04:36:28.478Z,51.32
2022-09-15T04:38:56.229Z,51.29
2022-09-15T04:41:23.310Z,51.29
2022-09-15T04:43:50.467Z,51.27
2022-09-15T04:46:18.490Z,51.69
2022-09-15T04:48:49.045Z,52.01
2022-09-15T04:51:18.219Z,52.11
2022-09-15T04:53:45.622Z,52.37
2022-09-15T04:56:14.743Z,52.46
2022-09-15T04:58:48.384Z,52.38
2022-09-15T05:01:17.240Z,51.93
2022-09-15T05:03:44.320Z,52.50
2022-09-15T05:06:12.622Z,52.20
2022-09-15T05:08:39.662Z,52.49
2022-09-15T05:11:08.768Z,52.42
2022-09-15T05:13:36.025Z,52.36
2022-09-15T05:16:13.778Z,52.83
2022-09-15T05:18:41.577Z,52.78
2022-09-15T05:21:09.155Z,52.30
2022-09-15T05:23:36.710Z,52.20
2022-09-15T05:26:05.874Z,52.36
2022-09-15T05:28:33.952Z,52.52
2022-09-15T05:31:00.992Z,52.79
2022-09-15T05:33:28.297Z,52.83
2022-09-15T05:35:59.431Z,53.29
2022-09-15T05:38:28.498Z,52.84
2022-09-15T05:40:55.980Z,52.80
2022-09-15T05:43:23.243Z,53.20
2022-09-15T05:45:56.438Z,53.03
2022-09-15T05:48:24.701Z,53.08
2022-09-15T05:50:52.537Z,53.24
2022-09-15T05:53:19.741Z,53.33
2022-09-15T05:55:46.823Z,53.25
2022-09-15T05:58:13.964Z,53.18
2022-09-15T06:00:41.744Z,53.11
2022-09-15T06:03:13.337Z,53.35
2022-09-15T06:05:40.357Z,53.52
2022-09-15T06:08:07.466Z,53.59
2022-09-15T06:10:34.858Z,53.27
2022-09-15T06:13:01.956Z,53.35
2022-09-15T06:15:29.037Z,53.52
2022-09-15T06:17:56.021Z,53.78
2022-09-15T06:20:22.935Z,53.53
2022-09-15T06:22:49.988Z,53.57
2022-09-15T06:25:17.141Z,53.80
2022-09-15T06:27:44.079Z,53.48
2022-09-15T06:30:11.593Z,53.04
2022-09-15T06:32:38.536Z,53.21
2022-09-15T06:35:08.734Z,53.28
2022-09-15T06:37:35.827Z,53.56
2022-09-15T06:40:04.328Z,53.61
2022-09-15T06:42:31.363Z,53.41
2022-09-15T06:44:58.848Z,53.57
2022-09-15T06:47:25.773Z,53.64
2022-09-15T06:49:54.796Z,53.80
2022-09-15T06:52:22.248Z,53.60
2022-09-15T06:54:49.838Z,53.71
2022-09-15T06:57:16.742Z,54.12
2022-09-15T06:59:44.663Z,53.91
2022-09-15T07:02:12.001Z,53.96
2022-09-15T07:04:39.032Z,53.83
2022-09-15T07:07:05.927Z,53.97
2022-09-15T07:09:32.809Z,54.30
2022-09-15T07:11:59.739Z,54.60
2022-09-15T07:14:26.657Z,54.41
2022-09-15T07:16:53.552Z,54.07
2022-09-15T07:19:20.464Z,54.29
2022-09-15T07:21:47.379Z,54.46
2022-09-15T07:24:14.621Z,54.00
2022-09-15T07:26:41.929Z,54.26
2022-09-15T07:29:09.803Z,54.09
2022-09-15T07:31:37.820Z,54.34
2022-09-15T07:34:04.970Z,54.55
2022-09-15T07:36:32.061Z,54.53
2022-09-15T07:38:59.222Z,54.26
2022-09-15T07:41:27.790Z,54.76
2022-09-15T07:43:56.115Z,54.73
2022-09-15T07:46:23.650Z,55.03
2022-09-15T07:48:53.136Z,55.11
2022-09-15T07:51:20.121Z,55.17
2022-09-15T07:53:47.702Z,54.93
2022-09-15T07:56:14.943Z,55.06
2022-09-15T07:58:41.932Z,55.25
2022-09-15T08:01:11.566Z,55.30
2022-09-15T08:03:46.449Z,55.27
2022-09-15T08:06:13.523Z,55.14
2022-09-15T08:08:40.554Z,55.26
2022-09-15T08:11:17.686Z,55.22
2022-09-15T08:13:49.715Z,55.26
2022-09-15T08:16:18.410Z,55.30
2022-09-15T08:18:45.568Z,55.62
2022-09-15T08:21:15.016Z,55.80
2022-09-15T08:23:41.972Z,55.25
2022-09-15T08:26:13.812Z,55.55
2022-09-15T08:28:41.473Z,55.48
2022-09-15T08:31:09.421Z,55.88
2022-09-15T08:33:36.630Z,55.62
2022-09-15T08:36:05.715Z,55.67
2022-09-15T08:38:33.077Z,55.83
2022-09-15T08:41:04.980Z,55.54
2022-09-15T08:43:41.209Z,55.76
2022-09-15T08:46:10.359Z,55.84
2022-09-15T08:48:41.348Z,55.78
2022-09-15T08:51:12.170Z,56.08
2022-09-15T08:53:45.480Z,55.29
2022-09-15T08:56:17.266Z,55.24
2022-09-15T08:58:45.759Z,55.03
2022-09-15T09:01:27.967Z,54.54
2022-09-15T09:03:54.881Z,54.60
2022-09-15T09:06:24.417Z,54.53
2022-09-15T09:08:57.208Z,54.41
2022-09-15T09:12:01.607Z,54.33
2022-09-15T09:14:31.792Z,54.04
2022-09-15T09:16:58.593Z,53.65
2022-09-15T09:20:04.273Z,52.97
2022-09-15T09:22:33.518Z,52.84
2022-09-15T09:25:08.454Z,52.53
2022-09-15T09:27:43.507Z,52.06
2022-09-15T09:30:13.353Z,52.15
2022-09-15T09:32:54.472Z,52.20
2022-09-15T09:35:43.739Z,51.37
2022-09-15T09:38:11.611Z,51.10
2022-09-15T09:40:41.173Z,51.04
2022-09-15T09:43:08.377Z,51.25
2022-09-15T09:45:35.385Z,51.40
2022-09-15T09:48:03.364Z,51.27
2022-09-15T09:50:43.195Z,51.16
2022-09-15T09:53:31.158Z,51.42
2022-09-15T09:56:15.217Z,51.10
2022-09-15T09:58:42.175Z,50.76
2022-09-15T10:01:14.280Z,51.16
2022-09-15T10:03:45.357Z,51.69
2022-09-15T10:06:24.523Z,51.96
2022-09-15T10:08:57.676Z,52.05
2022-09-15T10:11:59.072Z,52.27
2022-09-15T10:14:35.588Z,52.58
2022-09-15T10:17:08.325Z,52.65
2022-09-15T10:19:43.513Z,53.32
2022-09-15T10:22:10.510Z,53.66
2022-09-15T10:24:39.695Z,54.08
2022-09-15T10:27:18.014Z,54.07
2022-09-15T10:29:45.054Z,54.25
2022-09-15T10:32:25.525Z,53.78
2022-09-15T10:35:22.037Z,53.22
2022-09-15T10:37:55.105Z,53.20
2022-09-15T10:40:40.645Z,53.08
2022-09-15T10:43:19.469Z,53.30
2022-09-15T10:45:49.866Z,53.32
2022-09-15T10:48:29.146Z,53.31
2022-09-15T10:51:16.606Z,53.59
2022-09-15T10:54:18.317Z,53.51
2022-09-15T10:56:48.162Z,53.96
2022-09-15T10:59:33.883Z,54.01
2022-09-15T11:02:29.716Z,54.15
2022-09-15T11:05:10.971Z,53.98
2022-09-15T11:07:59.728Z,54.01
2022-09-15T11:10:32.528Z,54.24
2022-09-15T11:13:08.505Z,53.84
2022-09-15T11:15:51.408Z,53.93
2022-09-15T11:18:27.445Z,54.05
2022-09-15T11:21:00.253Z,54.52
2022-09-15T11:23:29.916Z,54.25
2022-09-15T11:26:00.546Z,54.11
2022-09-15T11:28:57.798Z,53.43
2022-09-15T11:31:37.394Z,53.68
2022-09-15T11:34:20.463Z,53.27
2022-09-15T11:36:50.987Z,53.76
2022-09-15T11:39:24.604Z,53.42
2022-09-15T11:42:04.803Z,53.31
2022-09-15T11:44:33.289Z,53.02
2022-09-15T11:47:28.703Z,53.16
2022-09-15T11:50:18.210Z,53.10
2022-09-15T11:52:58.625Z,53.33
2022-09-15T11:55:37.526Z,52.77
2022-09-15T11:58:22.135Z,53.23
2022-09-15T12:01:08.976Z,53.17
2022-09-15T12:03:54.761Z,53.12
2022-09-15T12:07:01.766Z,53.10
2022-09-15T12:09:29.338Z,53.27
2022-09-15T12:12:01.946Z,53.55
2022-09-15T12:14:42.313Z,53.16
2022-09-15T12:17:15.540Z,53.26
2022-09-15T12:19:44.682Z,53.45
2022-09-15T12:23:03.907Z,53.50
2022-09-15T12:26:05.812Z,53.16
2022-09-15T12:28:42.717Z,53.44
2022-09-15T12:31:28.212Z,53.86
2022-09-15T12:33:56.150Z,53.48
2022-09-15T12:36:45.743Z,53.42
2022-09-15T12:39:24.457Z,53.75
2022-09-15T12:42:01.382Z,54.56
2022-09-15T12:44:45.569Z,54.59
2022-09-15T12:47:20.556Z,55.05
2022-09-15T12:49:48.269Z,55.49
2022-09-15T12:52:15.288Z,55.32
2022-09-15T12:54:43.165Z,56.03
2022-09-15T12:57:31.401Z,56.12
2022-09-15T13:00:20.128Z,56.54
2022-09-15T13:02:48.122Z,56.36
2022-09-15T13:05:35.137Z,55.88
2022-09-15T13:08:02.116Z,56.54
2022-09-15T13:10:33.876Z,55.94
2022-09-15T13:13:23.393Z,55.60
2022-09-15T13:15:51.314Z,55.46
2022-09-15T13:18:18.329Z,55.94
2022-09-15T13:20:59.396Z,55.58
2022-09-15T13:23:27.427Z,55.73
2022-09-15T13:25:57.222Z,55.84
2022-09-15T13:28:24.428Z,55.80
2022-09-15T13:31:20.920Z,55.65
2022-09-15T13:41:13.231Z,55.53
2022-09-15T13:44:18.195Z,55.67
2022-09-15T13:46:57.302Z,55.39
2022-09-15T13:49:40.143Z,55.12
2022-09-15T13:52:13.422Z,55.30
2022-09-15T13:55:17.372Z,55.03
2022-09-15T14:00:55.545Z,55.12
2022-09-15T14:03:25.989Z,54.85
2022-09-15T14:05:54.005Z,54.81
2022-09-15T14:08:22.175Z,54.84
2022-09-15T14:10:55.261Z,54.75
2022-09-15T14:13:22.836Z,54.84
2022-09-15T14:16:11.785Z,54.83
2022-09-15T14:18:44.071Z,54.01
2022-09-15T14:21:18.022Z,54.46
2022-09-15T14:23:49.204Z,54.23
2022-09-15T14:26:16.834Z,54.24
2022-09-15T14:28:52.027Z,54.38
2022-09-15T14:31:27.664Z,54.35
2022-09-15T14:33:54.768Z,54.00
2022-09-15T14:36:23.125Z,54.18
2022-09-15T14:39:11.732Z,53.88
2022-09-15T14:41:39.213Z,54.03
2022-09-15T14:47:20.992Z,54.30
2022-09-15T14:49:48.144Z,54.55
2022-09-15T14:52:24.414Z,54.28
2022-09-15T14:54:52.193Z,54.04
2022-09-15T14:57:20.154Z,53.90
2022-09-15T14:59:50.547Z,53.68
2022-09-15T15:02:47.215Z,54.26
2022-09-15T15:05:19.863Z,54.29
2022-09-15T15:07:46.969Z,54.17
2022-09-15T15:10:16.825Z,53.81
2022-09-15T15:12:44.886Z,54.06
2022-09-15T15:15:12.529Z,54.32
2022-09-15T15:17:44.548Z,53.92
2022-09-15T15:20:11.501Z,53.98
2022-09-15T15:22:38.739Z,53.97
2022-09-15T15:25:24.606Z,54.11
2022-09-15T15:27:58.503Z,54.37
2022-09-15T15:30:29.768Z,54.02
2022-09-15T15:32:57.543Z,53.82
2022-09-15T15:35:24.563Z,54.17
2022-09-15T15:38:25.468Z,54.58
2022-09-15T15:41:00.163Z,54.40
2022-09-15T15:43:27.566Z,54.49
2022-09-15T15:46:01.056Z,53.80
2022-09-15T15:48:32.827Z,53.77
2022-09-15T15:51:04.391Z,53.75
2022-09-15T15:53:31.381Z,53.44
2022-09-15T15:55:59.571Z,53.32
2022-09-15T15:58:26.647Z,53.64
2022-09-15T16:00:54.840Z,53.46
2022-09-15T16:03:21.882Z,53.27
2022-09-15T16:05:52.871Z,53.32
2022-09-15T16:08:27.640Z,53.23
2022-09-15T16:10:54.619Z,53.19
2022-09-15T16:13:22.312Z,53.19
2022-09-15T16:15:49.414Z,52.97
2022-09-15T16:18:16.389Z,53.07
2022-09-15T16:20:43.463Z,53.22
2022-09-15T16:23:15.079Z,53.54
2022-09-15T16:26:07.312Z,53.24
2022-09-15T16:28:34.220Z,53.03
2022-09-15T16:31:01.103Z,53.40
2022-09-15T16:33:28.022Z,53.04
2022-09-15T16:35:55.832Z,53.30
2022-09-15T16:38:25.431Z,52.96
2022-09-15T16:40:52.345Z,53.17
2022-09-15T16:43:21.614Z,52.66
2022-09-15T16:45:49.364Z,53.25
2022-09-15T16:48:16.351Z,53.07
2022-09-15T16:51:01.226Z,53.30
2022-09-15T16:53:31.090Z,53.04
2022-09-15T16:55:58.078Z,52.88
2022-09-15T16:58:24.938Z,52.81
2022-09-15T17:00:52.881Z,52.78
2022-09-15T17:03:24.090Z,52.81
2022-09-15T17:05:52.177Z,53.06
2022-09-15T17:08:20.180Z,53.16
2022-09-15T17:10:47.501Z,53.25
2022-09-15T17:13:16.390Z,52.99
2022-09-15T17:15:43.790Z,53.03
2022-09-15T17:18:13.440Z,53.03
2022-09-15T17:20:40.330Z,53.18
2022-09-15T17:23:27.690Z,53.15
2022-09-15T17:25:57.443Z,53.37
2022-09-15T17:28:29.165Z,53.22
2022-09-15T17:31:00.669Z,53.50
2022-09-15T17:33:28.392Z,53.88
2022-09-15T17:35:55.383Z,53.28
2022-09-15T17:38:22.528Z,53.18
2022-09-15T17:40:49.948Z,52.84
2022-09-15T17:43:18.841Z,52.97
2022-09-15T17:45:45.985Z,53.18
2022-09-15T17:48:12.967Z,52.87
2022-09-15T17:50:39.957Z,53.03
2022-09-15T17:53:17.500Z,53.22
2022-09-15T17:55:44.418Z,53.18
2022-09-15T17:58:11.241Z,53.12
2022-09-15T18:00:40.176Z,53.33
2022-09-15T18:03:28.056Z,53.31
2022-09-15T18:05:59.256Z,53.50
2022-09-15T18:08:26.750Z,53.67
2022-09-15T18:10:53.803Z,53.48
2022-09-15T18:13:22.461Z,53.48
2022-09-15T18:15:49.464Z,53.36
2022-09-15T18:18:21.143Z,53.55
2022-09-15T18:20:53.171Z,53.40
2022-09-15T18:23:21.543Z,53.46
2022-09-15T18:25:48.574Z,53.45
2022-09-15T18:28:15.630Z,53.46
2022-09-15T18:30:44.353Z,53.35
2022-09-15T18:33:14.666Z,53.52
2022-09-15T18:35:41.921Z,53.75
2022-09-15T18:38:08.951Z,53.75
2022-09-15T18:40:36.027Z,53.75
2022-09-15T18:43:02.950Z,53.50
2022-09-15T18:45:29.830Z,53.74
2022-09-15T18:47:57.089Z,53.65
2022-09-15T18:50:25.635Z,53.39
2022-09-15T18:52:53.067Z,54.12
2022-09-15T18:55:21.119Z,54.24
2022-09-15T18:57:48.549Z,53.69
2022-09-15T19:00:20.321Z,53.67
2022-09-15T19:02:47.717Z,53.74
2022-09-15T19:05:17.850Z,53.83
2022-09-15T19:07:44.946Z,53.53
2022-09-15T19:10:13.176Z,53.83
2022-09-15T19:12:40.127Z,53.68
2022-09-15T19:15:10.912Z,53.69
2022-09-15T19:17:38.561Z,53.64
2022-09-15T19:20:06.848Z,53.81
2022-09-15T19:22:33.960Z,53.66
2022-09-15T19:25:00.826Z,53.96
2022-09-15T19:27:27.800Z,53.73
2022-09-15T19:29:54.640Z,53.69
2022-09-15T19:32:22.186Z,53.78
2022-09-15T19:34:49.106Z,53.98
2022-09-15T19:37:20.753Z,53.76
2022-09-15T19:39:48.127Z,53.86
2022-09-15T19:44:47.946Z,54.29
2022-09-15T19:47:15.005Z,53.93
2022-09-15T19:49:41.901Z,54.12
2022-09-15T19:52:08.822Z,54.22
2022-09-15T19:54:35.729Z,54.18
2022-09-15T19:57:02.707Z,54.11
2022-09-15T19:59:31.714Z,53.98
2022-09-15T20:01:59.746Z,54.34
2022-09-15T20:07:12.690Z,54.08
2022-09-15T20:09:40.893Z,53.95
2022-09-15T20:12:07.784Z,53.90
2022-09-15T20:14:34.721Z,54.04
2022-09-15T20:17:01.882Z,53.93
2022-09-15T20:19:29.898Z,54.00
2022-09-15T20:21:56.841Z,54.18
2022-09-15T20:24:24.074Z,54.23
2022-09-15T20:26:51.187Z,53.98
2022-09-15T20:29:18.527Z,54.31
2022-09-15T20:34:29.446Z,54.12
2022-09-15T20:36:56.363Z,54.55
2022-09-15T20:39:23.219Z,54.30
2022-09-15T20:41:50.132Z,54.27
2022-09-15T20:44:17.041Z,54.60
2022-09-15T20:46:43.888Z,54.80
2022-09-15T20:49:10.869Z,54.37
2022-09-15T20:51:37.667Z,54.44
2022-09-15T20:54:04.982Z,54.64
2022-09-15T20:56:35.001Z,54.32
2022-09-15T20:59:03.299Z,54.19
2022-09-15T21:01:37.226Z,54.26
2022-09-15T21:04:04.890Z,54.16
2022-09-15T21:06:31.717Z,54.33
2022-09-15T21:08:58.661Z,54.71
2022-09-15T21:11:26.625Z,54.86
2022-09-15T21:13:53.869Z,54.59
2022-09-15T21:16:22.205Z,54.73
2022-09-15T21:18:49.414Z,54.66
2022-09-15T21:21:30.258Z,54.50
2022-09-15T21:24:03.667Z,54.74
2022-09-15T21:26:56.637Z,54.64
2022-09-15T21:29:23.576Z,54.56
2022-09-15T21:31:50.487Z,54.70
2022-09-15T21:34:17.427Z,54.86
2022-09-15T21:36:44.252Z,54.72
2022-09-15T21:39:11.101Z,54.80
2022-09-15T21:41:38.335Z,54.92
2022-09-15T21:44:05.197Z,54.70
2022-09-15T21:46:32.052Z,54.85
2022-09-15T21:48:59.551Z,54.92
2022-09-15T21:51:27.278Z,54.86
2022-09-15T21:53:54.556Z,54.88
2022-09-15T21:56:21.790Z,55.02
2022-09-15T21:58:48.604Z,54.92
2022-09-15T22:01:20.129Z,54.73
2022-09-15T22:03:54.438Z,54.64
2022-09-15T22:06:22.529Z,54.71
2022-09-15T22:08:49.409Z,54.78
2022-09-15T22:11:16.258Z,54.81
2022-09-15T22:13:43.717Z,54.67
2022-09-15T22:16:13.212Z,54.77
2022-09-15T22:18:40.448Z,54.90
2022-09-15T22:21:08.487Z,54.96
2022-09-15T22:23:35.518Z,54.63
2022-09-15T22:26:06.829Z,54.73
2022-09-15T22:28:33.632Z,55.03
2022-09-15T22:31:01.063Z,54.97
2022-09-15T22:33:28.037Z,55.07
2022-09-15T22:35:54.948Z,55.00
2022-09-15T22:38:21.792Z,55.02
2022-09-15T22:40:48.631Z,55.04
2022-09-15T22:43:15.499Z,55.14
2022-09-15T22:45:42.336Z,55.07
2022-09-15T22:48:09.275Z,55.15
2022-09-15T22:50:36.162Z,55.19
2022-09-15T22:53:02.975Z,55.25
2022-09-15T22:55:32.667Z,55.22
2022-09-15T22:57:59.556Z,55.17
2022-09-15T23:00:27.142Z,55.26
2022-09-15T23:02:54.290Z,55.01
2022-09-15T23:05:21.266Z,55.09
2022-09-15T23:07:48.070Z,55.08
2022-09-15T23:10:15.134Z,55.19
2022-09-15T23:12:42.011Z,55.12
2022-09-15T23:15:09.164Z,55.10
2022-09-15T23:17:36.043Z,55.19
2022-09-15T23:20:03.182Z,55.21
2022-09-15T23:22:30.019Z,55.02
2022-09-15T23:24:57.611Z,55.30
2022-09-15T23:27:24.491Z,55.28
2022-09-15T23:29:51.315Z,55.43
2022-09-15T23:32:18.193Z,55.51
2022-09-15T23:34:45.032Z,55.32
2022-09-15T23:37:11.892Z,55.34
2022-09-15T23:39:38.758Z,55.26
2022-09-15T23:42:05.668Z,55.57
2022-09-15T23:44:32.496Z,55.45
2022-09-15T23:46:59.611Z,55.54
2022-09-15T23:49:26.467Z,55.37
2022-09-15T23:51:53.287Z,55.47
2022-09-15T23:54:20.153Z,55.55
2022-09-15T23:56:47.007Z,55.70
2022-09-15T23:59:13.913Z,55.06
